Time;durP1;ratioP1;P1;durP2;ratioP2;P2;SDS_P1;SDS_P2;PMS_P1;PMS_P2;Temp;Humidity;BMP_temperature;BMP_pressure;BME280_temperature;BME280_humidity;BME280_pressure;Samples;Min_cycle;Max_cycle;Signal;HPM_P1;HPM_P2
2021/07/29 00:01:28;;;;;;;10.93;5.38;;;17.40;99.90;;;;;;5052531;28;20021;-50
2021/07/29 00:03:53;;;;;;;7.15;5.00;;;17.40;99.90;;;;;;5067552;28;20132;-51
2021/07/29 00:06:19;;;;;;;7.93;5.50;;;17.40;99.90;;;;;;5058082;28;20580;-51
2021/07/29 00:08:45;;;;;;;7.25;4.65;;;17.40;99.90;;;;;;5066598;28;20025;-51
2021/07/29 00:11:11;;;;;;;7.28;4.40;;;17.40;99.90;;;;;;5070807;28;20045;-52
2021/07/29 00:13:38;;;;;;;7.07;4.20;;;17.40;99.90;;;;;;5052867;28;20494;-52
2021/07/29 00:16:04;;;;;;;9.25;4.35;;;17.40;99.90;;;;;;5069051;28;20482;-52
2021/07/29 00:21:14;;;;;;;6.18;4.05;;;17.40;99.90;;;;;;5071065;28;20031;-51
2021/07/29 00:23:40;;;;;;;11.18;4.57;;;17.50;99.90;;;;;;5052157;28;20017;-51
2021/07/29 00:26:08;;;;;;;5.30;4.10;;;17.50;99.90;;;;;;5062606;28;20100;-51
2021/07/29 00:28:33;;;;;;;6.10;4.70;;;17.50;99.90;;;;;;5063113;28;20028;-51
2021/07/29 00:30:59;;;;;;;8.38;4.32;;;17.50;99.90;;;;;;5057673;28;20180;-51
2021/07/29 00:33:24;;;;;;;9.73;5.32;;;17.50;99.90;;;;;;5065091;28;20109;-51
2021/07/29 00:35:50;;;;;;;10.77;5.10;;;17.50;99.90;;;;;;5053979;28;20364;-52
2021/07/29 00:38:15;;;;;;;6.60;4.20;;;17.50;99.90;;;;;;5070621;28;20482;-51
2021/07/29 00:40:41;;;;;;;5.22;4.43;;;17.50;99.90;;;;;;5054561;28;20020;-51
2021/07/29 00:43:07;;;;;;;7.07;4.75;;;17.50;99.90;;;;;;5062380;28;20081;-51
2021/07/29 00:45:32;;;;;;;8.05;4.40;;;17.60;99.90;;;;;;5058382;28;20025;-51
2021/07/29 00:47:58;;;;;;;8.38;4.55;;;17.60;99.90;;;;;;5056810;28;20040;-51
2021/07/29 00:50:24;;;;;;;12.18;4.60;;;17.50;99.90;;;;;;5065643;28;20032;-51
2021/07/29 00:52:49;;;;;;;9.25;4.50;;;17.50;99.90;;;;;;5051867;28;20530;-51
2021/07/29 00:55:18;;;;;;;8.68;4.70;;;17.60;99.90;;;;;;5069308;28;20029;-52
2021/07/29 00:57:44;;;;;;;12.35;4.45;;;17.50;99.90;;;;;;5058472;28;20054;-51
2021/07/29 01:00:10;;;;;;;9.93;4.38;;;17.50;99.90;;;;;;5061775;28;20017;-50
2021/07/29 01:02:36;;;;;;;7.50;4.47;;;17.50;99.90;;;;;;5068573;28;20259;-49
2021/07/29 01:05:01;;;;;;;10.88;4.25;;;17.40;99.90;;;;;;5060931;28;20024;-50
2021/07/29 01:07:27;;;;;;;11.60;4.43;;;17.40;99.90;;;;;;5070358;28;20095;-50
2021/07/29 01:09:52;;;;;;;10.82;4.25;;;17.40;99.90;;;;;;5070313;28;20442;-50
2021/07/29 01:12:18;;;;;;;12.30;4.97;;;17.30;99.90;;;;;;5063873;28;20025;-51
2021/07/29 01:14:44;;;;;;;9.07;4.72;;;17.20;99.90;;;;;;5065014;28;20093;-48
2021/07/29 01:17:10;;;;;;;9.80;4.55;;;17.20;99.90;;;;;;5057768;28;20102;-49
2021/07/29 01:19:35;;;;;;;6.72;4.38;;;17.10;99.90;;;;;;5061888;28;20455;-51
2021/07/29 01:22:01;;;;;;;8.35;4.07;;;17.00;99.90;;;;;;5067245;28;20029;-51
2021/07/29 01:24:27;;;;;;;11.10;4.82;;;17.00;99.90;;;;;;5060730;28;20242;-51
2021/07/29 01:26:53;;;;;;;9.98;4.78;;;16.90;99.90;;;;;;5069712;28;20043;-51
2021/07/29 01:29:19;;;;;;;10.73;4.50;;;16.90;99.90;;;;;;5069721;28;20482;-51
2021/07/29 01:31:45;;;;;;;9.88;4.70;;;16.80;99.90;;;;;;5053715;28;20021;-51
2021/07/29 01:34:10;;;;;;;9.95;4.85;;;16.80;99.90;;;;;;5068117;28;20556;-52
2021/07/29 01:36:36;;;;;;;11.85;4.53;;;16.70;99.90;;;;;;5055661;28;20772;-51
2021/07/29 01:39:02;;;;;;;18.27;5.20;;;16.70;99.90;;;;;;5067313;28;20200;-51
2021/07/29 01:41:28;;;;;;;8.73;4.68;;;16.60;99.90;;;;;;5059621;28;20075;-51
2021/07/29 01:43:53;;;;;;;8.02;4.75;;;16.60;99.90;;;;;;5065628;28;20028;-51
2021/07/29 01:46:19;;;;;;;9.55;4.65;;;16.50;99.90;;;;;;5063671;28;20050;-51
2021/07/29 01:48:44;;;;;;;15.77;4.60;;;16.50;99.90;;;;;;5060898;28;20031;-51
2021/07/29 01:51:10;;;;;;;9.70;4.78;;;16.50;99.90;;;;;;5069516;28;20371;-51
2021/07/29 01:53:35;;;;;;;6.93;4.65;;;16.50;99.90;;;;;;5068474;28;20037;-51
2021/07/29 01:56:00;;;;;;;6.40;4.22;;;16.40;99.90;;;;;;5069049;28;20024;-51
2021/07/29 01:58:26;;;;;;;8.93;4.53;;;16.40;99.90;;;;;;5061385;28;20052;-52
2021/07/29 02:00:53;;;;;;;11.48;4.70;;;16.40;99.90;;;;;;5065582;28;20020;-51
2021/07/29 02:03:18;;;;;;;9.38;4.45;;;16.40;99.90;;;;;;5054517;28;20021;-52
2021/07/29 02:05:44;;;;;;;10.90;4.75;;;16.30;99.90;;;;;;5060525;28;20028;-51
2021/07/29 02:08:09;;;;;;;8.20;4.47;;;16.20;99.90;;;;;;5069463;28;20087;-51
2021/07/29 02:10:35;;;;;;;12.85;4.55;;;16.20;99.90;;;;;;5069279;28;20032;-52
2021/07/29 02:13:01;;;;;;;9.70;4.38;;;16.20;99.90;;;;;;5069256;28;20032;-51
2021/07/29 02:15:27;;;;;;;13.85;4.22;;;16.20;99.90;;;;;;5063149;28;20028;-51
2021/07/29 02:17:57;;;;;;;7.72;4.15;;;16.10;99.90;;;;;;5054220;28;20032;-51
2021/07/29 02:20:23;;;;;;;9.15;4.95;;;16.10;99.90;;;;;;5068766;28;20413;-51
2021/07/29 02:22:48;;;;;;;5.63;4.18;;;16.10;99.90;;;;;;5064329;28;20160;-52
2021/07/29 02:25:14;;;;;;;9.95;4.45;;;16.10;99.90;;;;;;5059712;28;20098;-51
2021/07/29 02:27:39;;;;;;;9.13;4.55;;;16.20;99.90;;;;;;5068430;28;20024;-51
2021/07/29 02:30:05;;;;;;;8.23;4.35;;;16.30;99.90;;;;;;5068607;28;20028;-51
2021/07/29 02:32:31;;;;;;;7.00;3.83;;;16.30;99.90;;;;;;5056206;28;20021;-51
2021/07/29 02:34:57;;;;;;;8.45;3.78;;;16.40;99.90;;;;;;5059441;28;20029;-51
2021/07/29 02:37:23;;;;;;;8.05;3.83;;;16.50;99.90;;;;;;5065947;28;20470;-52
2021/07/29 02:39:49;;;;;;;11.02;4.15;;;16.60;99.90;;;;;;5060057;28;20066;-51
2021/07/29 02:42:15;;;;;;;8.07;3.75;;;16.70;99.90;;;;;;5067262;28;20470;-52
2021/07/29 02:44:41;;;;;;;14.30;3.65;;;16.70;99.90;;;;;;5067687;28;20044;-52
2021/07/29 02:47:06;;;;;;;13.48;4.43;;;16.80;99.90;;;;;;5060333;28;20542;-51
2021/07/29 02:49:32;;;;;;;5.47;3.97;;;16.80;99.90;;;;;;5059843;28;20490;-52
2021/07/29 02:51:58;;;;;;;7.85;3.70;;;16.80;99.90;;;;;;5068072;28;20029;-51
2021/07/29 02:54:23;;;;;;;6.97;3.30;;;16.80;99.90;;;;;;5061541;28;20027;-52
2021/07/29 02:56:49;;;;;;;5.05;3.50;;;16.80;99.90;;;;;;5059866;28;20028;-51
2021/07/29 02:59:15;;;;;;;5.90;3.78;;;16.90;99.90;;;;;;5068058;28;20048;-51
2021/07/29 03:01:40;;;;;;;13.00;4.38;;;16.90;99.90;;;;;;5055559;28;20067;-51
2021/07/29 03:04:06;;;;;;;8.50;3.38;;;16.90;99.90;;;;;;5056289;28;20021;-50
2021/07/29 03:06:33;;;;;;;4.95;3.08;;;16.90;99.90;;;;;;5065182;28;20047;-50
2021/07/29 03:09:00;;;;;;;8.68;3.70;;;16.90;99.90;;;;;;5054765;28;20033;-51
2021/07/29 03:11:25;;;;;;;5.10;3.28;;;16.90;99.90;;;;;;5066880;28;20064;-51
2021/07/29 03:13:51;;;;;;;6.40;3.65;;;16.90;99.90;;;;;;5067377;28;20127;-51
2021/07/29 03:16:16;;;;;;;8.40;3.45;;;17.00;99.90;;;;;;5055930;28;20111;-50
2021/07/29 03:18:42;;;;;;;5.30;3.80;;;16.90;99.90;;;;;;5063887;28;20032;-51
2021/07/29 03:21:08;;;;;;;6.07;3.72;;;16.90;99.90;;;;;;5062211;28;20048;-51
2021/07/29 03:23:34;;;;;;;5.47;3.88;;;16.90;99.90;;;;;;5063421;28;20066;-51
2021/07/29 03:26:00;;;;;;;8.77;4.05;;;16.90;99.90;;;;;;5069725;28;20107;-51
2021/07/29 03:28:25;;;;;;;8.35;4.55;;;16.90;99.90;;;;;;5053522;28;20439;-51
2021/07/29 03:30:54;;;;;;;10.13;4.50;;;16.80;99.90;;;;;;5068644;28;20047;-50
2021/07/29 03:33:20;;;;;;;9.40;4.25;;;16.80;99.90;;;;;;5050483;28;20030;-50
2021/07/29 03:35:46;;;;;;;6.78;3.80;;;16.90;99.90;;;;;;5041171;28;20021;-51
2021/07/29 03:38:12;;;;;;;8.45;4.03;;;16.80;99.90;;;;;;5048436;28;20112;-51
2021/07/29 03:40:38;;;;;;;7.95;3.97;;;16.80;99.90;;;;;;5040712;28;20029;-50
2021/07/29 03:43:06;;;;;;;8.15;3.58;;;16.70;99.90;;;;;;5045141;28;20025;-50
2021/07/29 03:45:33;;;;;;;6.22;4.22;;;16.70;99.90;;;;;;5041065;28;20028;-51
2021/07/29 03:47:59;;;;;;;8.20;4.22;;;16.70;99.90;;;;;;5041064;28;20028;-51
2021/07/29 03:50:25;;;;;;;7.00;4.03;;;16.70;99.90;;;;;;5043161;28;20029;-50
2021/07/29 03:52:51;;;;;;;11.15;3.92;;;16.70;99.90;;;;;;5040275;28;20037;-51
2021/07/29 03:55:16;;;;;;;5.28;4.03;;;16.70;99.90;;;;;;5042714;28;20036;-51
2021/07/29 03:57:42;;;;;;;7.68;4.10;;;16.70;99.90;;;;;;5039610;28;20024;-53
2021/07/29 04:00:08;;;;;;;7.63;3.97;;;16.80;99.90;;;;;;5049696;28;20057;-52
2021/07/29 04:02:35;;;;;;;8.52;4.00;;;16.70;99.90;;;;;;5040066;28;20026;-51
2021/07/29 04:05:01;;;;;;;12.65;4.50;;;16.80;99.90;;;;;;5040372;28;20029;-51
2021/07/29 04:07:27;;;;;;;9.27;4.40;;;16.80;99.90;;;;;;5040081;28;20105;-52
2021/07/29 04:09:52;;;;;;;5.97;4.03;;;16.80;99.90;;;;;;5033557;28;20096;-51
2021/07/29 04:12:18;;;;;;;6.10;3.78;;;16.80;99.90;;;;;;5035435;28;20434;-51
2021/07/29 04:14:44;;;;;;;7.28;3.45;;;16.80;99.90;;;;;;5039028;28;20037;-51
2021/07/29 04:17:10;;;;;;;6.85;3.65;;;16.80;99.90;;;;;;5039978;28;20078;-51
2021/07/29 04:19:36;;;;;;;11.98;3.75;;;16.80;99.90;;;;;;5044342;28;20021;-52
2021/07/29 04:22:04;;;;;;;7.50;4.32;;;16.70;99.90;;;;;;5039046;28;20025;-52
2021/07/29 04:24:30;;;;;;;6.72;3.85;;;16.70;99.90;;;;;;5043541;28;20033;-52
2021/07/29 04:26:57;;;;;;;8.13;3.45;;;16.80;99.90;;;;;;5042645;28;20549;-52
2021/07/29 04:29:23;;;;;;;11.35;4.35;;;16.80;99.90;;;;;;5030893;28;20029;-53
2021/07/29 04:31:49;;;;;;;21.05;5.78;;;16.80;99.90;;;;;;5031013;28;20038;-51
2021/07/29 04:34:15;;;;;;;4.45;3.70;;;16.90;99.90;;;;;;5051225;28;20419;-51
2021/07/29 04:36:41;;;;;;;9.50;4.60;;;16.90;99.90;;;;;;5042838;28;20112;-51
2021/07/29 04:39:08;;;;;;;6.93;3.60;;;16.90;99.90;;;;;;5038947;28;20025;-51
2021/07/29 04:41:40;;;;;;;12.65;3.83;;;16.90;99.90;;;;;;5046073;28;20115;-48
2021/07/29 04:44:08;;;;;;;8.48;3.95;;;16.90;99.90;;;;;;5040190;28;20025;-51
2021/07/29 04:46:37;;;;;;;6.95;4.18;;;16.90;99.90;;;;;;5052546;28;20028;-52
2021/07/29 04:49:04;;;;;;;6.00;4.07;;;17.00;99.90;;;;;;5068579;28;20028;-53
2021/07/29 04:51:29;;;;;;;9.63;4.43;;;17.10;99.90;;;;;;5052708;28;20131;-53
2021/07/29 04:53:55;;;;;;;8.70;3.58;;;17.10;99.90;;;;;;5066866;28;20108;-51
2021/07/29 04:56:21;;;;;;;10.13;4.60;;;17.10;99.90;;;;;;5061546;28;20637;-52
2021/07/29 04:58:49;;;;;;;9.50;4.25;;;17.20;99.90;;;;;;5066325;28;20020;-51
2021/07/29 05:01:15;;;;;;;7.30;4.45;;;17.20;99.90;;;;;;5070397;28;20012;-54
2021/07/29 05:03:40;;;;;;;7.57;4.78;;;17.20;99.90;;;;;;5068414;28;20036;-53
2021/07/29 05:06:06;;;;;;;11.98;4.43;;;17.20;99.90;;;;;;5056516;28;20041;-53
2021/07/29 05:08:31;;;;;;;7.82;4.47;;;17.20;99.90;;;;;;5042267;28;20398;-52
2021/07/29 05:10:56;;;;;;;7.82;5.03;;;17.20;99.90;;;;;;5039010;28;20405;-53
2021/07/29 05:13:23;;;;;;;9.73;4.80;;;17.20;99.90;;;;;;5052921;28;20024;-53
2021/07/29 05:15:48;;;;;;;11.20;4.70;;;17.10;99.90;;;;;;5069062;28;20436;-53
2021/07/29 05:18:14;;;;;;;10.18;4.45;;;17.10;99.90;;;;;;5060059;28;20037;-53
2021/07/29 05:20:39;;;;;;;13.07;4.35;;;17.10;99.90;;;;;;5041484;28;20389;-53
2021/07/29 05:23:04;;;;;;;10.95;5.07;;;17.10;99.90;;;;;;5033527;28;20233;-53
2021/07/29 05:25:32;;;;;;;12.55;4.75;;;17.00;99.90;;;;;;5060926;28;20415;-53
2021/07/29 05:27:57;;;;;;;9.05;4.50;;;16.90;99.90;;;;;;5069021;28;20367;-52
2021/07/29 05:30:22;;;;;;;11.38;5.13;;;16.90;99.90;;;;;;5070286;28;20075;-52
2021/07/29 05:32:48;;;;;;;10.73;5.75;;;16.80;99.90;;;;;;5065978;28;20367;-52
2021/07/29 05:35:13;;;;;;;11.20;4.65;;;16.60;99.90;;;;;;5060837;28;20044;-52
2021/07/29 05:37:39;;;;;;;11.10;5.32;;;16.50;99.90;;;;;;5069809;28;20356;-52
2021/07/29 05:40:06;;;;;;;7.30;5.20;;;16.40;99.90;;;;;;5069425;28;20077;-52
2021/07/29 05:42:32;;;;;;;9.55;5.50;;;16.30;99.90;;;;;;5061839;28;20021;-52
2021/07/29 05:44:58;;;;;;;10.15;5.47;;;16.20;99.90;;;;;;5060494;28;20469;-53
2021/07/29 05:47:24;;;;;;;11.32;5.32;;;16.20;99.90;;;;;;5057862;28;20029;-52
2021/07/29 05:49:49;;;;;;;7.80;4.75;;;16.20;99.90;;;;;;5036419;28;20026;-52
2021/07/29 05:52:15;;;;;;;9.32;4.32;;;16.20;99.90;;;;;;5038041;28;20014;-53
2021/07/29 05:54:40;;;;;;;11.18;4.55;;;16.20;99.90;;;;;;5042910;28;20021;-52
2021/07/29 05:57:06;;;;;;;8.07;4.80;;;16.30;99.90;;;;;;5049413;28;20036;-53
2021/07/29 05:59:31;;;;;;;6.40;4.50;;;16.30;99.90;;;;;;5049542;28;20390;-53
2021/07/29 06:01:57;;;;;;;9.20;4.50;;;16.40;99.90;;;;;;5049064;28;20024;-52
2021/07/29 06:04:22;;;;;;;6.57;4.90;;;16.40;99.90;;;;;;5037434;28;20029;-53
2021/07/29 06:06:48;;;;;;;9.80;4.63;;;16.40;99.90;;;;;;5028953;28;20034;-53
2021/07/29 06:09:13;;;;;;;6.50;4.80;;;16.40;99.90;;;;;;5029183;28;20056;-52
2021/07/29 06:11:38;;;;;;;11.05;5.07;;;16.60;99.90;;;;;;5029124;28;20458;-52
2021/07/29 06:14:05;;;;;;;10.55;4.85;;;16.60;99.90;;;;;;5031110;28;20057;-52
2021/07/29 06:16:30;;;;;;;6.72;4.28;;;16.60;99.90;;;;;;5038290;28;20044;-52
2021/07/29 06:21:40;;;;;;;7.22;4.30;;;17.00;99.90;;;;;;5042637;28;20028;-53
2021/07/29 06:24:05;;;;;;;5.93;4.43;;;17.10;99.90;;;;;;5041676;28;20033;-52
2021/07/29 06:26:31;;;;;;;6.78;4.03;;;17.20;99.90;;;;;;5037103;28;20040;-53
2021/07/29 06:28:57;;;;;;;7.85;4.60;;;17.40;99.90;;;;;;5038344;28;20017;-52
2021/07/29 06:31:22;;;;;;;6.97;4.43;;;17.50;99.90;;;;;;5038587;28;20088;-52
2021/07/29 06:33:48;;;;;;;7.90;4.22;;;17.60;99.90;;;;;;5034828;28;20033;-53
2021/07/29 06:36:13;;;;;;;5.50;3.72;;;17.60;99.90;;;;;;5031676;28;20033;-53
2021/07/29 06:38:39;;;;;;;7.30;4.40;;;17.70;99.90;;;;;;5028506;28;20032;-53
2021/07/29 06:41:05;;;;;;;7.60;3.92;;;17.80;99.90;;;;;;5028618;28;20562;-53
2021/07/29 06:43:31;;;;;;;5.40;3.80;;;17.80;99.90;;;;;;5026877;28;20140;-52
2021/07/29 06:46:03;;;;;;;8.27;4.13;;;17.90;99.90;;;;;;5027104;28;20505;-52
2021/07/29 06:48:28;;;;;;;7.97;3.80;;;17.90;99.90;;;;;;5027208;28;20458;-47
2021/07/29 06:50:53;;;;;;;8.88;3.78;;;17.90;99.90;;;;;;5026918;28;20087;-54
2021/07/29 06:53:19;;;;;;;7.07;3.70;;;18.00;99.90;;;;;;5034421;28;20124;-53
2021/07/29 06:55:44;;;;;;;4.38;2.85;;;18.10;99.90;;;;;;5032194;28;20088;-54
2021/07/29 06:58:10;;;;;;;5.38;3.03;;;18.00;99.90;;;;;;5034282;28;20030;-54
2021/07/29 07:00:35;;;;;;;8.18;3.33;;;18.10;99.90;;;;;;5040983;28;20024;-53
2021/07/29 07:03:01;;;;;;;5.22;2.60;;;18.10;99.90;;;;;;5045572;28;20037;-53
2021/07/29 07:05:26;;;;;;;8.60;3.53;;;18.10;99.90;;;;;;5032603;28;20037;-53
2021/07/29 07:07:52;;;;;;;4.35;2.70;;;18.20;99.90;;;;;;5045559;28;20041;-53
2021/07/29 07:10:17;;;;;;;6.25;2.70;;;18.30;99.90;;;;;;5048412;28;20543;-54
2021/07/29 07:12:43;;;;;;;4.22;2.80;;;18.40;99.90;;;;;;5048456;28;20029;-54
2021/07/29 07:15:09;;;;;;;5.60;2.80;;;18.60;99.90;;;;;;5047685;28;20056;-53
2021/07/29 07:17:34;;;;;;;3.05;2.25;;;18.70;99.90;;;;;;5048400;28;20468;-53
2021/07/29 07:20:01;;;;;;;4.10;2.80;;;18.80;99.90;;;;;;5048069;28;20044;-54
2021/07/29 07:22:27;;;;;;;7.90;2.50;;;19.10;99.90;;;;;;5048226;28;20017;-53
2021/07/29 07:24:52;;;;;;;5.85;2.05;;;19.20;99.90;;;;;;5047521;28;20490;-53
2021/07/29 07:27:18;;;;;;;5.05;2.25;;;19.20;99.90;;;;;;5048194;28;20025;-53
2021/07/29 07:29:43;;;;;;;5.75;2.25;;;19.10;99.90;;;;;;5046726;28;20059;-54
2021/07/29 07:32:09;;;;;;;5.13;2.58;;;19.00;99.90;;;;;;5048161;28;20046;-53
2021/07/29 07:34:35;;;;;;;3.53;2.20;;;18.80;99.90;;;;;;5047513;28;20029;-54
2021/07/29 07:37:00;;;;;;;8.13;2.17;;;18.80;99.90;;;;;;5047936;28;20087;-53
2021/07/29 07:39:26;;;;;;;5.78;3.03;;;18.80;99.90;;;;;;5048063;28;20036;-54
2021/07/29 07:41:52;;;;;;;6.38;2.78;;;18.80;99.90;;;;;;5047877;28;20394;-53
2021/07/29 07:44:18;;;;;;;9.43;2.30;;;18.80;99.90;;;;;;5047368;28;20037;-54
2021/07/29 07:46:43;;;;;;;3.50;1.70;;;18.80;99.90;;;;;;5048349;28;20021;-54
2021/07/29 07:49:10;;;;;;;3.70;2.33;;;18.90;99.90;;;;;;5048411;28;20056;-53
2021/07/29 07:51:37;;;;;;;6.65;2.08;;;18.90;99.90;;;;;;5048271;28;20029;-53
2021/07/29 07:54:02;;;;;;;3.60;2.10;;;19.00;99.90;;;;;;5047307;28;20025;-54
2021/07/29 07:56:28;;;;;;;8.30;2.50;;;19.10;99.90;;;;;;5047764;28;20104;-53
2021/07/29 07:58:53;;;;;;;4.65;2.33;;;19.10;99.90;;;;;;5048004;28;20021;-54
2021/07/29 08:01:20;;;;;;;3.72;1.95;;;19.30;99.90;;;;;;5048549;28;20056;-54
2021/07/29 08:03:46;;;;;;;6.75;2.55;;;19.30;99.90;;;;;;5050851;28;20062;-54
2021/07/29 08:06:11;;;;;;;4.45;2.97;;;19.30;99.90;;;;;;5051335;28;20028;-54
2021/07/29 08:08:38;;;;;;;5.35;2.08;;;19.30;99.90;;;;;;5051398;28;20372;-54
2021/07/29 08:11:04;;;;;;;4.05;2.10;;;19.40;99.90;;;;;;5050091;28;20035;-53
2021/07/29 08:13:29;;;;;;;5.80;2.60;;;19.60;99.90;;;;;;5050908;28;20991;-54
2021/07/29 08:15:55;;;;;;;3.63;2.05;;;20.00;99.90;;;;;;5050913;28;20024;-54
2021/07/29 08:18:20;;;;;;;6.47;2.63;;;20.20;99.90;;;;;;5049712;28;20021;-53
2021/07/29 08:20:46;;;;;;;2.90;1.75;;;20.30;99.90;;;;;;5051478;28;20040;-54
2021/07/29 08:23:12;;;;;;;4.25;2.00;;;20.40;99.90;;;;;;5049673;28;20474;-53
2021/07/29 08:25:38;;;;;;;4.32;2.10;;;20.30;99.90;;;;;;5051273;28;20117;-53
2021/07/29 08:28:04;;;;;;;6.20;2.20;;;20.40;99.50;;;;;;5051231;28;20179;-53
2021/07/29 08:30:29;;;;;;;4.32;1.90;;;20.40;99.30;;;;;;5051158;28;20021;-54
2021/07/29 08:32:55;;;;;;;8.30;2.00;;;20.90;98.90;;;;;;5051128;28;20437;-54
2021/07/29 08:35:20;;;;;;;2.67;1.67;;;21.30;98.40;;;;;;5050483;28;20036;-54
2021/07/29 08:37:49;;;;;;;2.80;1.70;;;22.10;96.70;;;;;;5050925;28;20118;-54
2021/07/29 08:40:19;;;;;;;3.88;1.75;;;23.60;93.50;;;;;;5050835;28;20029;-54
2021/07/29 08:42:46;;;;;;;4.28;1.70;;;24.50;89.80;;;;;;5049456;28;20483;-55
2021/07/29 08:45:12;;;;;;;3.17;1.60;;;25.00;85.20;;;;;;5048876;28;20485;-54
2021/07/29 08:47:37;;;;;;;3.60;2.03;;;24.60;82.80;;;;;;5049419;28;20358;-54
2021/07/29 08:50:05;;;;;;;7.10;1.52;;;24.90;81.80;;;;;;5050834;28;20025;-54
2021/07/29 08:52:31;;;;;;;6.20;2.03;;;24.60;81.10;;;;;;5050213;28;20028;-54
2021/07/29 08:54:58;;;;;;;5.60;1.70;;;24.10;81.30;;;;;;5049726;28;20031;-54
2021/07/29 08:57:32;;;;;;;5.00;1.70;;;23.20;83.90;;;;;;5050426;28;20024;-54
2021/07/29 09:00:01;;;;;;;6.07;2.15;;;22.30;86.40;;;;;;5050437;28;20017;-54
2021/07/29 09:02:27;;;;;;;3.53;2.25;;;21.40;90.10;;;;;;5050199;28;20022;-54
2021/07/29 09:05:12;;;;;;;5.82;2.20;;;21.30;91.10;;;;;;5049763;28;20017;-54
2021/07/29 09:07:39;;;;;;;4.57;2.15;;;21.20;91.10;;;;;;5050437;28;20075;-54
2021/07/29 09:10:23;;;;;;;5.70;2.03;;;21.00;91.50;;;;;;5050543;28;20032;-54
2021/07/29 09:13:07;;;;;;;6.20;2.45;;;20.80;92.00;;;;;;5049084;28;20049;-54
2021/07/29 09:15:33;;;;;;;3.15;2.28;;;20.70;92.50;;;;;;5049478;28;20035;-54
2021/07/29 09:17:59;;;;;;;4.68;2.38;;;20.50;92.80;;;;;;5048604;28;20119;-53
2021/07/29 09:20:24;;;;;;;10.65;3.72;;;20.30;93.70;;;;;;5050116;28;20033;-54
2021/07/29 09:22:52;;;;;;;4.53;2.33;;;20.30;93.70;;;;;;5049856;28;20029;-54
2021/07/29 09:25:20;;;;;;;5.93;2.55;;;20.30;93.60;;;;;;5049308;28;20033;-54
2021/07/29 09:27:48;;;;;;;6.22;2.42;;;21.10;93.10;;;;;;5049932;28;20079;-54
2021/07/29 09:30:24;;;;;;;4.53;2.47;;;21.20;93.20;;;;;;5049898;28;20076;-54
2021/07/29 09:32:59;;;;;;;4.32;2.20;;;21.30;93.20;;;;;;5050038;28;20108;-54
2021/07/29 09:35:45;;;;;;;4.40;2.60;;;21.10;92.20;;;;;;5049034;28;20021;-54
2021/07/29 09:38:24;;;;;;;4.07;2.33;;;20.90;92.90;;;;;;5049807;28;20514;-55
2021/07/29 09:40:53;;;;;;;4.47;2.42;;;20.40;93.40;;;;;;5049771;28;20599;-53
2021/07/29 09:43:21;;;;;;;6.53;2.28;;;20.00;93.40;;;;;;5049231;28;20021;-54
2021/07/29 09:45:51;;;;;;;7.00;2.58;;;20.00;94.00;;;;;;5049606;28;20025;-54
2021/07/29 09:48:18;;;;;;;5.75;2.08;;;21.40;92.00;;;;;;5049952;28;20083;-54
2021/07/29 09:50:43;;;;;;;7.15;2.20;;;22.60;89.10;;;;;;5049776;28;20024;-54
2021/07/29 09:53:09;;;;;;;4.20;1.92;;;22.90;87.30;;;;;;5049344;28;20060;-54
2021/07/29 09:55:35;;;;;;;4.68;2.53;;;22.10;89.40;;;;;;5049078;28;20143;-55
2021/07/29 09:58:01;;;;;;;3.70;2.28;;;22.50;88.90;;;;;;5049736;28;20182;-54
2021/07/29 10:00:27;;;;;;;3.67;1.67;;;22.40;88.30;;;;;;5049567;28;20515;-55
2021/07/29 10:02:54;;;;;;;9.38;2.55;;;22.30;86.50;;;;;;5049624;28;20486;-54
2021/07/29 10:05:27;;;;;;;5.43;2.13;;;22.80;86.10;;;;;;5048838;28;20036;-55
2021/07/29 10:07:55;;;;;;;4.10;1.80;;;23.90;82.60;;;;;;5049487;28;20039;-55
2021/07/29 10:10:22;;;;;;;3.63;1.98;;;25.60;80.90;;;;;;5049366;28;20060;-54
2021/07/29 10:12:49;;;;;;;5.05;1.80;;;27.00;73.70;;;;;;5049671;28;20214;-54
2021/07/29 10:15:39;;;;;;;5.75;1.77;;;27.50;67.20;;;;;;5048326;28;20040;-55
2021/07/29 10:18:06;;;;;;;4.38;1.80;;;27.30;64.30;;;;;;5049139;28;20047;-54
2021/07/29 10:20:33;;;;;;;5.20;1.77;;;28.70;63.90;;;;;;5048910;28;20025;-55
2021/07/29 10:23:13;;;;;;;3.72;1.80;;;28.50;60.50;;;;;;5048873;28;20044;-54
2021/07/29 10:26:02;;;;;;;2.83;1.45;;;28.80;59.10;;;;;;5047066;28;20025;-54
2021/07/29 10:28:35;;;;;;;5.97;1.60;;;29.60;55.80;;;;;;5048872;28;20029;-55
2021/07/29 10:31:01;;;;;;;3.50;1.92;;;29.80;54.00;;;;;;5048957;28;20027;-54
2021/07/29 10:33:28;;;;;;;4.85;1.30;;;28.40;54.50;;;;;;5048067;28;20116;-54
2021/07/29 10:35:55;;;;;;;4.80;1.80;;;27.60;55.50;;;;;;5048711;28;20048;-54
2021/07/29 10:38:45;;;;;;;4.35;1.80;;;26.60;58.90;;;;;;5048821;28;20190;-55
2021/07/29 10:41:23;;;;;;;3.70;1.88;;;26.70;57.40;;;;;;5048915;28;20031;-54
2021/07/29 10:43:49;;;;;;;4.03;1.63;;;27.00;56.80;;;;;;5048440;28;20366;-55
2021/07/29 10:46:14;;;;;;;2.15;1.30;;;26.90;57.60;;;;;;5048585;28;20449;-54
2021/07/29 10:48:50;;;;;;;4.00;1.58;;;26.20;57.60;;;;;;5048556;28;20025;-54
2021/07/29 10:51:24;;;;;;;2.47;1.52;;;25.50;59.20;;;;;;5048476;28;20021;-54
2021/07/29 10:53:55;;;;;;;3.05;1.77;;;24.90;59.80;;;;;;5048017;28;20025;-54
2021/07/29 10:56:23;;;;;;;6.47;2.00;;;24.10;61.00;;;;;;5048669;28;20035;-54
2021/07/29 10:58:58;;;;;;;1.60;1.25;;;23.40;62.80;;;;;;5048850;28;20025;-54
2021/07/29 11:01:49;;;;;;;4.65;1.38;;;24.30;62.90;;;;;;5048435;28;20104;-54
2021/07/29 11:04:14;;;;;;;4.38;1.67;;;26.30;59.90;;;;;;5047615;28;20022;-54
2021/07/29 11:06:43;;;;;;;6.40;1.60;;;28.20;54.90;;;;;;5048425;28;20045;-55
2021/07/29 11:09:16;;;;;;;4.30;1.55;;;28.80;54.10;;;;;;5048366;28;20372;-55
2021/07/29 11:11:44;;;;;;;3.30;1.30;;;28.00;53.30;;;;;;5048268;28;20029;-56
2021/07/29 11:14:10;;;;;;;3.15;1.20;;;27.50;51.80;;;;;;5047802;28;20040;-54
2021/07/29 11:16:37;;;;;;;4.07;1.48;;;28.50;52.40;;;;;;5048413;28;20056;-55
2021/07/29 11:19:03;;;;;;;3.13;1.20;;;29.50;51.90;;;;;;5048283;28;20435;-54
2021/07/29 11:21:29;;;;;;;2.30;1.40;;;30.00;49.00;;;;;;5048328;28;20021;-55
2021/07/29 11:23:55;;;;;;;10.55;1.38;;;29.10;49.20;;;;;;5047502;28;20040;-55
2021/07/29 11:26:21;;;;;;;3.60;1.45;;;28.00;50.80;;;;;;5048276;28;20025;-54
2021/07/29 11:29:06;;;;;;;3.63;1.48;;;27.40;51.70;;;;;;5048457;28;20029;-54
2021/07/29 11:31:32;;;;;;;2.80;1.38;;;27.80;51.60;;;;;;5048215;28;20055;-54
2021/07/29 11:33:59;;;;;;;5.40;1.50;;;28.90;51.90;;;;;;5047656;28;20067;-57
2021/07/29 11:36:25;;;;;;;6.25;1.42;;;30.20;50.50;;;;;;5048914;28;20017;-55
2021/07/29 11:39:01;;;;;;;4.55;1.38;;;30.30;47.10;;;;;;5052506;28;20539;-55
2021/07/29 11:41:28;;;;;;;3.25;1.70;;;29.40;47.40;;;;;;5051096;28;20033;-55
2021/07/29 11:43:56;;;;;;;2.53;1.25;;;29.30;49.20;;;;;;5051344;28;20100;-55
2021/07/29 11:46:21;;;;;;;3.85;1.33;;;30.30;47.80;;;;;;5051904;28;20371;-55
2021/07/29 11:48:59;;;;;;;3.65;1.30;;;30.60;46.70;;;;;;5051755;28;20070;-55
2021/07/29 11:51:24;;;;;;;2.55;1.27;;;30.50;44.50;;;;;;5052048;28;20029;-55
2021/07/29 11:53:50;;;;;;;5.88;1.20;;;30.30;45.90;;;;;;5051267;28;20033;-55
2021/07/29 11:56:17;;;;;;;3.88;1.15;;;30.90;43.50;;;;;;5051861;28;20082;-55
2021/07/29 11:58:59;;;;;;;2.97;1.27;;;30.80;43.50;;;;;;5051634;28;20158;-55
2021/07/29 12:01:25;;;;;;;4.22;1.48;;;31.20;43.40;;;;;;5051467;28;20090;-55
2021/07/29 12:03:53;;;;;;;5.00;1.30;;;31.10;44.30;;;;;;5050811;28;20429;-56
2021/07/29 12:06:19;;;;;;;3.80;1.85;;;30.30;43.30;;;;;;5051526;28;20402;-54
2021/07/29 12:08:47;;;;;;;4.57;1.23;;;29.30;45.60;;;;;;5051675;28;20496;-54
2021/07/29 12:11:15;;;;;;;3.17;1.60;;;28.20;46.70;;;;;;5051444;28;20116;-55
2021/07/29 12:13:43;;;;;;;6.68;1.67;;;27.80;47.70;;;;;;5051157;28;20029;-55
2021/07/29 12:16:09;;;;;;;4.15;1.23;;;27.30;49.90;;;;;;5051251;28;20107;-55
2021/07/29 12:18:35;;;;;;;2.65;1.33;;;27.20;49.20;;;;;;5051227;28;20124;-55
2021/07/29 12:21:02;;;;;;;4.70;1.15;;;27.40;50.80;;;;;;5051380;28;20075;-55
2021/07/29 12:23:28;;;;;;;5.93;1.25;;;27.50;47.90;;;;;;5050630;28;20025;-56
2021/07/29 12:25:56;;;;;;;6.50;1.55;;;27.10;50.20;;;;;;5051273;28;20482;-54
2021/07/29 12:28:57;;;;;;;5.40;1.33;;;26.70;49.80;;;;;;5051195;28;20021;-54
2021/07/29 12:31:27;;;;;;;5.53;1.50;;;27.00;54.60;;;;;;5011771;28;20415;-54
2021/07/29 12:33:56;;;;;;;4.03;1.70;;;27.10;49.10;;;;;;5046507;28;20179;-54
2021/07/29 12:36:23;;;;;;;5.88;1.60;;;26.90;50.60;;;;;;5050913;28;20036;-54
2021/07/29 12:38:59;;;;;;;4.47;1.75;;;27.00;48.40;;;;;;5050930;28;20014;-55
2021/07/29 12:41:39;;;;;;;4.65;1.23;;;26.60;49.00;;;;;;5051377;28;20162;-54
2021/07/29 12:44:08;;;;;;;4.47;1.13;;;26.80;49.30;;;;;;5050224;28;20429;-54
2021/07/29 12:46:34;;;;;;;4.33;1.60;;;26.70;48.30;;;;;;5050698;28;20155;-54
2021/07/29 12:49:00;;;;;;;6.18;1.40;;;26.40;48.30;;;;;;5050538;28;20112;-54
2021/07/29 12:51:38;;;;;;;3.28;1.15;;;25.80;48.30;;;;;;5050540;28;20031;-55